Time;durP1;ratioP1;P1;durP2;ratioP2;P2;SDS_P1;SDS_P2;PMS_P1;PMS_P2;Temp;Humidity;BMP_temperature;BMP_pressure;BME280_temperature;BME280_humidity;BME280_pressure;Samples;Min_cycle;Max_cycle;Signal;HPM_P1;HPM_P2
2023/05/06 04:04:18;;;;;;;2.30;2.20;;;13.70;99.90;;;;;;5980003;23;20516;-67
2023/05/06 04:06:43;;;;;;;2.23;1.93;;;13.70;99.90;;;;;;4995396;28;20454;-67
2023/05/06 04:09:09;;;;;;;2.10;1.90;;;13.70;99.90;;;;;;4996807;28;20202;-67
2023/05/06 04:11:35;;;;;;;1.93;1.83;;;13.70;99.90;;;;;;4996976;28;20593;-67
2023/05/06 04:14:00;;;;;;;3.17;2.93;;;13.70;99.90;;;;;;4996454;28;20206;-67
2023/05/06 04:16:26;;;;;;;2.03;1.90;;;13.70;99.90;;;;;;4996873;28;20406;-66
2023/05/06 04:18:51;;;;;;;4.20;2.73;;;13.70;99.90;;;;;;4995319;28;20189;-67
2023/05/06 04:21:17;;;;;;;3.20;2.90;;;13.60;99.90;;;;;;4996471;28;20171;-67
2023/05/06 04:23:43;;;;;;;2.00;1.90;;;13.60;99.90;;;;;;4996295;28;20266;-67
2023/05/06 04:26:09;;;;;;;2.00;1.90;;;13.60;99.90;;;;;;4996624;28;20253;-67
2023/05/06 04:28:34;;;;;;;2.97;2.80;;;13.60;99.90;;;;;;4996753;28;20209;-67
2023/05/06 04:31:01;;;;;;;2.60;2.43;;;13.60;99.90;;;;;;4996585;28;20457;-68
2023/05/06 04:33:28;;;;;;;3.57;2.63;;;13.50;99.90;;;;;;4995558;28;20465;-68
2023/05/06 04:35:54;;;;;;;2.67;2.47;;;13.60;99.90;;;;;;4995667;28;20900;-67
2023/05/06 04:38:21;;;;;;;2.60;2.40;;;13.60;99.90;;;;;;4996283;28;20487;-67
2023/05/06 04:40:48;;;;;;;3.00;2.83;;;13.50;99.90;;;;;;4996263;28;20409;-67
2023/05/06 04:43:15;;;;;;;24.77;2.93;;;13.60;99.90;;;;;;4996051;28;20440;-67
2023/05/06 04:45:48;;;;;;;3.47;3.00;;;13.60;99.90;;;;;;4996031;28;20486;-67
2023/05/06 04:48:23;;;;;;;4.00;3.70;;;13.80;99.90;;;;;;4996240;28;20529;-67
2023/05/06 04:50:51;;;;;;;4.20;3.90;;;14.00;99.90;;;;;;4996031;28;20919;-67
2023/05/06 04:53:17;;;;;;;6.40;3.90;;;14.30;99.90;;;;;;4995775;28;20442;-67
2023/05/06 04:55:42;;;;;;;3.20;2.90;;;14.50;99.90;;;;;;4996033;28;20441;-67
2023/05/06 04:58:08;;;;;;;4.47;4.17;;;14.60;99.90;;;;;;4995866;28;20184;-67
2023/05/06 05:00:34;;;;;;;3.50;3.20;;;14.70;99.90;;;;;;4996376;28;20178;-67
2023/05/06 05:03:00;;;;;;;2.77;2.67;;;14.70;99.90;;;;;;4994566;28;20181;-68
2023/05/06 05:05:27;;;;;;;3.77;3.37;;;14.90;99.90;;;;;;4995315;28;20812;-67
2023/05/06 05:07:53;;;;;;;3.50;3.00;;;15.00;99.90;;;;;;4994489;28;20423;-67
2023/05/06 05:10:18;;;;;;;3.20;2.90;;;15.10;99.90;;;;;;4995821;28;20418;-68
2023/05/06 05:12:45;;;;;;;3.40;3.20;;;15.10;99.90;;;;;;4994573;28;20507;-67
2023/05/06 05:15:11;;;;;;;4.00;3.70;;;15.30;99.90;;;;;;4994055;28;20234;-67
2023/05/06 05:17:37;;;;;;;2.20;2.10;;;15.30;99.90;;;;;;4995574;28;20446;-68
2023/05/06 05:20:04;;;;;;;3.60;2.93;;;15.40;99.90;;;;;;4995673;28;20379;-67
2023/05/06 05:22:30;;;;;;;3.57;3.00;;;15.50;99.90;;;;;;4995765;28;20718;-67
2023/05/06 05:24:56;;;;;;;2.67;2.47;;;15.50;99.90;;;;;;4994933;28;20490;-67
2023/05/06 05:27:22;;;;;;;2.27;2.17;;;15.60;99.90;;;;;;4995551;28;20469;-67
2023/05/06 05:29:48;;;;;;;2.57;2.47;;;15.70;99.90;;;;;;4994218;28;20181;-67
2023/05/06 05:32:14;;;;;;;3.00;2.67;;;16.00;99.90;;;;;;4995270;28;20394;-67
2023/05/06 05:34:39;;;;;;;2.47;2.27;;;16.30;99.90;;;;;;4994032;28;20464;-67
2023/05/06 05:37:05;;;;;;;2.60;2.30;;;16.50;99.90;;;;;;4993931;28;20501;-68
2023/05/06 05:39:30;;;;;;;1.90;1.80;;;16.60;99.90;;;;;;4995295;28;20169;-67
2023/05/06 05:41:56;;;;;;;2.80;2.60;;;16.60;99.90;;;;;;4995099;28;20229;-68
2023/05/06 05:44:22;;;;;;;2.40;2.30;;;16.70;99.90;;;;;;4994704;28;20198;-67
2023/05/06 05:46:49;;;;;;;2.97;2.80;;;16.80;99.90;;;;;;4995111;28;20254;-67
2023/05/06 05:49:15;;;;;;;2.47;2.00;;;16.80;99.90;;;;;;4993788;28;20182;-67
2023/05/06 05:51:40;;;;;;;2.53;2.40;;;16.80;99.90;;;;;;4993735;28;20418;-67
2023/05/06 05:54:06;;;;;;;2.83;2.27;;;16.90;99.90;;;;;;4994547;28;20245;-67
2023/05/06 05:56:31;;;;;;;3.60;3.30;;;17.00;99.90;;;;;;4995102;28;20168;-68
2023/05/06 05:58:57;;;;;;;2.80;2.60;;;17.10;99.90;;;;;;4993509;28;20171;-67
2023/05/06 06:01:23;;;;;;;3.23;2.93;;;17.10;99.90;;;;;;4993878;28;20179;-67
2023/05/06 06:03:48;;;;;;;1.70;1.60;;;17.10;99.90;;;;;;4994709;28;20183;-67
2023/05/06 06:06:14;;;;;;;2.80;2.53;;;17.10;99.90;;;;;;4994690;28;20534;-67
2023/05/06 06:08:40;;;;;;;2.90;2.70;;;17.10;99.90;;;;;;4994785;28;20175;-67
2023/05/06 06:11:06;;;;;;;2.60;2.40;;;17.10;99.90;;;;;;4993389;28;20206;-68
2023/05/06 06:13:31;;;;;;;2.63;2.43;;;17.10;99.90;;;;;;4994462;28;20454;-68
2023/05/06 06:15:57;;;;;;;3.47;2.80;;;17.10;99.90;;;;;;4994544;28;20628;-68
2023/05/06 06:18:23;;;;;;;2.20;2.00;;;17.20;99.90;;;;;;4994605;28;20171;-68
2023/05/06 06:20:49;;;;;;;3.07;2.87;;;17.20;99.90;;;;;;4993174;28;20477;-68
2023/05/06 06:23:14;;;;;;;2.53;2.20;;;17.10;99.90;;;;;;4994323;28;20174;-68
2023/05/06 06:25:40;;;;;;;2.00;1.90;;;17.10;99.90;;;;;;4994313;28;20736;-68
2023/05/06 06:28:06;;;;;;;2.50;2.30;;;17.10;99.90;;;;;;4994243;28;20172;-68
2023/05/06 06:30:31;;;;;;;2.63;2.43;;;17.10;99.90;;;;;;4994635;28;20294;-67
2023/05/06 06:33:00;;;;;;;1.50;1.50;;;17.10;99.90;;;;;;4994320;28;20170;-67
2023/05/06 06:35:26;;;;;;;1.63;1.53;;;17.20;99.90;;;;;;4993978;28;20200;-67
2023/05/06 06:37:52;;;;;;;2.33;2.20;;;17.30;99.90;;;;;;4994237;28;20391;-68
2023/05/06 06:40:18;;;;;;;2.00;1.90;;;17.40;99.90;;;;;;4994253;28;20395;-68
2023/05/06 06:42:44;;;;;;;1.90;1.80;;;17.50;99.90;;;;;;4993945;28;20724;-67
2023/05/06 06:45:10;;;;;;;1.80;1.70;;;17.70;99.90;;;;;;4992157;28;20199;-68
2023/05/06 06:47:36;;;;;;;1.80;1.70;;;17.80;99.90;;;;;;4994137;28;20421;-67
2023/05/06 06:50:02;;;;;;;3.67;2.97;;;18.00;99.90;;;;;;4994017;28;20896;-67
2023/05/06 06:52:27;;;;;;;2.10;1.70;;;18.20;99.90;;;;;;4994106;28;20533;-68
2023/05/06 06:54:53;;;;;;;1.93;1.83;;;18.30;99.90;;;;;;4993570;28;20380;-68
2023/05/06 06:57:19;;;;;;;2.20;1.87;;;18.30;99.90;;;;;;4992810;28;20218;-68
2023/05/06 06:59:46;;;;;;;2.73;2.53;;;18.20;99.90;;;;;;4994133;28;20654;-68
2023/05/06 07:02:12;;;;;;;2.17;1.97;;;18.30;99.90;;;;;;4993986;28;20485;-68
2023/05/06 07:04:37;;;;;;;3.80;2.13;;;18.20;99.90;;;;;;4993347;28;20536;-67
2023/05/06 07:07:03;;;;;;;2.00;1.90;;;18.20;99.90;;;;;;4994317;28;20184;-68
2023/05/06 07:09:28;;;;;;;2.30;2.10;;;18.30;99.90;;;;;;4994073;28;20167;-68
2023/05/06 07:11:54;;;;;;;2.53;2.03;;;18.50;99.90;;;;;;4993693;28;20688;-68
2023/05/06 07:14:19;;;;;;;1.40;1.30;;;18.80;99.90;;;;;;4993180;28;20307;-68
2023/05/06 07:16:45;;;;;;;2.20;1.70;;;19.10;99.90;;;;;;4993840;28;20171;-68
2023/05/06 07:19:11;;;;;;;1.90;1.80;;;19.30;99.90;;;;;;4993856;28;20210;-68
2023/05/06 07:21:36;;;;;;;2.40;1.40;;;19.50;99.90;;;;;;4992530;28;20177;-68
2023/05/06 07:24:02;;;;;;;1.40;1.30;;;19.60;99.90;;;;;;4993298;28;20171;-68
2023/05/06 07:26:28;;;;;;;1.60;1.33;;;19.50;99.90;;;;;;4992535;28;20172;-68
2023/05/06 07:28:53;;;;;;;1.33;1.30;;;19.60;99.90;;;;;;4993718;28;20178;-67
2023/05/06 07:31:19;;;;;;;1.97;1.67;;;19.60;99.90;;;;;;4993701;28;20283;-67
2023/05/06 07:33:48;;;;;;;1.23;1.13;;;19.80;99.90;;;;;;4993285;28;20199;-67
2023/05/06 07:36:13;;;;;;;1.80;1.70;;;20.10;99.90;;;;;;4993818;28;20404;-67
2023/05/06 07:38:40;;;;;;;1.80;1.70;;;20.60;99.90;;;;;;4992335;28;20441;-67
2023/05/06 07:41:05;;;;;;;2.47;1.73;;;21.40;99.90;;;;;;4992232;28;20168;-68
2023/05/06 07:43:31;;;;;;;2.43;1.70;;;22.40;99.90;;;;;;4991855;28;20901;-68
2023/05/06 07:46:01;;;;;;;2.00;1.90;;;23.50;99.90;;;;;;4993451;28;20546;-69
2023/05/06 07:48:31;;;;;;;2.40;1.20;;;24.50;99.90;;;;;;4992259;28;20219;-69
2023/05/06 07:50:57;;;;;;;1.80;1.70;;;24.80;98.00;;;;;;4993629;28;20393;-70
2023/05/06 07:53:23;;;;;;;1.40;1.30;;;24.70;98.10;;;;;;4991908;28;20441;-68
2023/05/06 07:55:49;;;;;;;1.70;1.60;;;25.40;97.00;;;;;;4993298;28;20184;-68
2023/05/06 07:58:15;;;;;;;1.73;1.63;;;25.80;96.00;;;;;;4996698;28;20168;-68
2023/05/06 08:00:40;;;;;;;1.90;1.80;;;25.40;94.70;;;;;;4997103;28;20164;-68
2023/05/06 08:03:06;;;;;;;1.97;1.87;;;24.80;95.60;;;;;;4996856;28;20262;-69
2023/05/06 08:05:32;;;;;;;2.60;2.40;;;24.20;96.80;;;;;;4996595;28;20588;-69
2023/05/06 08:07:57;;;;;;;3.20;3.00;;;24.00;96.20;;;;;;4996713;28;20175;-68
2023/05/06 08:10:23;;;;;;;2.50;2.40;;;23.40;97.30;;;;;;4996784;28;20202;-69
2023/05/06 08:12:48;;;;;;;2.43;2.33;;;23.70;98.20;;;;;;4995506;28;20274;-67
2023/05/06 08:15:15;;;;;;;3.00;2.80;;;24.20;97.10;;;;;;4996326;28;20301;-69
2023/05/06 08:17:40;;;;;;;2.50;2.30;;;24.70;96.50;;;;;;4996803;28;20172;-69
2023/05/06 08:20:07;;;;;;;3.00;2.80;;;25.30;95.60;;;;;;4996742;28;20407;-68
2023/05/06 08:22:32;;;;;;;3.47;3.17;;;26.20;94.30;;;;;;4996909;28;20172;-69
2023/05/06 08:24:58;;;;;;;2.90;2.70;;;27.10;93.60;;;;;;4996260;28;20404;-69
2023/05/06 08:27:24;;;;;;;3.20;2.93;;;28.10;92.50;;;;;;4985925;28;20183;-67
2023/05/06 08:29:50;;;;;;;1.67;1.57;;;28.40;89.40;;;;;;4995124;28;20657;-68
2023/05/06 08:32:15;;;;;;;2.13;2.03;;;28.40;87.50;;;;;;4995329;28;20179;-68
2023/05/06 08:34:41;;;;;;;2.87;1.90;;;28.20;86.00;;;;;;4991058;28;20467;-68
2023/05/06 08:37:06;;;;;;;3.70;3.20;;;28.00;88.00;;;;;;4976767;28;20570;-68
2023/05/06 08:39:32;;;;;;;2.37;2.27;;;28.20;88.40;;;;;;4976891;28;20168;-69
2023/05/06 08:42:00;;;;;;;2.33;2.13;;;28.60;88.30;;;;;;4976994;28;20180;-68
2023/05/06 08:44:26;;;;;;;1.80;1.70;;;29.40;86.40;;;;;;4975109;28;20215;-68
2023/05/06 08:46:52;;;;;;;1.90;1.80;;;30.00;83.80;;;;;;4976938;28;20415;-68
2023/05/06 08:49:17;;;;;;;1.57;1.47;;;29.90;81.00;;;;;;4979778;28;20211;-68
2023/05/06 08:51:44;;;;;;;2.23;2.13;;;30.30;80.10;;;;;;4984848;28;20184;-68
2023/05/06 08:54:11;;;;;;;2.10;2.00;;;31.00;79.60;;;;;;4990033;28;20219;-68
2023/05/06 08:56:39;;;;;;;1.97;1.87;;;31.60;75.30;;;;;;4994548;28;20506;-68
2023/05/06 08:59:08;;;;;;;2.10;2.00;;;31.50;73.00;;;;;;4994221;28;20414;-68
2023/05/06 09:01:34;;;;;;;2.43;2.30;;;31.20;73.70;;;;;;4995916;28;20976;-67
2023/05/06 09:04:02;;;;;;;2.33;2.23;;;30.80;74.50;;;;;;4995173;28;20423;-69
2023/05/06 09:06:28;;;;;;;2.27;2.17;;;30.20;75.50;;;;;;4996246;28;20477;-67
2023/05/06 09:08:54;;;;;;;2.10;2.00;;;29.20;78.00;;;;;;4995558;28;20446;-66
2023/05/06 09:11:24;;;;;;;2.37;2.20;;;28.30;80.50;;;;;;4995727;28;20184;-66
2023/05/06 09:13:50;;;;;;;1.93;1.83;;;27.20;83.20;;;;;;4993245;28;20195;-68
2023/05/06 09:16:29;;;;;;;2.03;1.93;;;26.10;85.40;;;;;;4976402;28;20539;-67
2023/05/06 09:18:55;;;;;;;1.97;1.87;;;25.20;87.00;;;;;;4976045;28;20802;-69
2023/05/06 09:21:28;;;;;;;1.47;1.47;;;24.40;89.90;;;;;;4974716;28;20459;-69
2023/05/06 09:23:53;;;;;;;1.83;1.73;;;23.60;91.50;;;;;;4974410;28;20398;-68
2023/05/06 09:26:22;;;;;;;2.50;2.30;;;23.00;91.60;;;;;;4976243;28;20422;-68
2023/05/06 09:28:47;;;;;;;1.57;1.47;;;22.90;91.80;;;;;;4979606;28;20421;-69
2023/05/06 09:31:14;;;;;;;1.90;1.80;;;23.60;91.70;;;;;;4995464;28;20445;-68
2023/05/06 09:33:40;;;;;;;1.27;1.17;;;24.80;91.60;;;;;;4994908;28;20626;-68
2023/05/06 09:36:06;;;;;;;1.30;1.30;;;26.00;90.10;;;;;;4993803;28;20526;-68
2023/05/06 09:38:32;;;;;;;1.87;1.50;;;26.90;86.90;;;;;;4995207;28;20409;-68
2023/05/06 09:40:57;;;;;;;1.40;1.30;;;27.30;82.00;;;;;;4995299;28;20672;-68
2023/05/06 09:43:23;;;;;;;1.57;1.50;;;27.60;80.80;;;;;;4992352;28;20215;-69
2023/05/06 09:45:50;;;;;;;1.20;1.20;;;27.80;80.00;;;;;;4975507;28;20199;-68
2023/05/06 09:48:16;;;;;;;1.33;1.23;;;27.90;77.90;;;;;;4975660;28;20688;-69
2023/05/06 09:50:43;;;;;;;1.57;1.47;;;28.00;78.30;;;;;;4975530;28;20408;-69
2023/05/06 09:53:10;;;;;;;1.50;1.40;;;28.30;78.20;;;;;;4979802;28;20204;-68
2023/05/06 09:55:36;;;;;;;1.37;1.37;;;29.10;79.00;;;;;;4994866;28;20435;-68
2023/05/06 09:58:06;;;;;;;1.60;1.50;;;29.90;74.00;;;;;;4995006;28;20395;-68
2023/05/06 10:00:32;;;;;;;1.60;1.50;;;29.90;72.80;;;;;;4993464;28;21027;-67
2023/05/06 10:02:59;;;;;;;1.80;1.70;;;29.80;74.70;;;;;;4994772;28;20419;-68
2023/05/06 10:05:26;;;;;;;1.23;1.13;;;29.70;74.80;;;;;;4994217;28;20454;-68
2023/05/06 10:07:53;;;;;;;1.70;1.60;;;29.60;73.80;;;;;;4989723;28;20419;-68
2023/05/06 10:10:19;;;;;;;1.60;1.50;;;29.10;76.40;;;;;;4975354;28;20411;-68
2023/05/06 10:12:47;;;;;;;1.60;1.50;;;27.90;77.40;;;;;;4975524;28;20406;-69
2023/05/06 10:15:13;;;;;;;1.87;1.77;;;27.10;78.80;;;;;;4974634;28;20494;-67
2023/05/06 10:17:40;;;;;;;1.50;1.40;;;26.10;79.90;;;;;;4975073;28;20406;-68
2023/05/06 10:20:09;;;;;;;2.03;1.87;;;25.20;83.00;;;;;;4974453;28;20164;-69
2023/05/06 10:23:11;;;;;;;1.53;1.47;;;24.40;85.00;;;;;;4975847;28;20408;-68
2023/05/06 10:25:39;;;;;;;1.43;1.33;;;23.80;85.10;;;;;;4973276;28;20413;-69
2023/05/06 10:28:06;;;;;;;1.40;1.30;;;23.40;89.90;;;;;;4974913;28;20374;-68
2023/05/06 10:30:33;;;;;;;1.60;1.43;;;23.50;90.20;;;;;;4974980;28;20929;-69
2023/05/06 10:33:03;;;;;;;1.30;1.13;;;24.30;87.50;;;;;;4973671;28;20390;-69
2023/05/06 10:35:43;;;;;;;1.03;1.03;;;25.10;84.50;;;;;;4974551;28;20454;-68
2023/05/06 10:38:18;;;;;;;1.70;1.60;;;25.50;82.90;;;;;;4974736;28;20413;-69
2023/05/06 10:40:44;;;;;;;2.23;1.43;;;25.80;81.90;;;;;;4974933;28;20408;-69
2023/05/06 10:43:32;;;;;;;1.33;1.23;;;26.40;80.30;;;;;;4974210;28;20411;-69
2023/05/06 10:46:08;;;;;;;1.20;1.20;;;26.70;80.80;;;;;;4973516;28;20406;-69
2023/05/06 10:48:35;;;;;;;1.43;1.33;;;27.00;78.90;;;;;;4973305;28;20394;-69
2023/05/06 10:51:16;;;;;;;1.30;1.20;;;27.50;78.10;;;;;;4974835;28;20714;-69
2023/05/06 10:53:54;;;;;;;1.70;1.60;;;28.20;77.60;;;;;;4991436;28;20544;-69
2023/05/06 10:56:20;;;;;;;1.80;1.70;;;28.70;75.00;;;;;;4992816;28;20406;-69
2023/05/06 10:58:46;;;;;;;1.77;1.67;;;28.80;73.30;;;;;;4992602;28;20917;-68
2023/05/06 11:01:15;;;;;;;1.57;1.47;;;28.90;73.30;;;;;;4993898;28;20266;-68
2023/05/06 11:03:44;;;;;;;1.63;1.53;;;28.90;72.30;;;;;;4992350;28;20410;-68
2023/05/06 11:06:10;;;;;;;1.60;1.50;;;28.50;72.20;;;;;;4993410;28;20413;-68
2023/05/06 11:08:36;;;;;;;1.60;1.50;;;27.90;72.80;;;;;;4993724;28;20403;-68
2023/05/06 11:11:40;;;;;;;1.80;1.70;;;27.20;73.60;;;;;;4994066;28;20171;-67
2023/05/06 11:14:12;;;;;;;1.40;1.30;;;26.30;76.00;;;;;;4991879;28;21011;-67
2023/05/06 11:16:51;;;;;;;1.60;1.50;;;25.70;77.30;;;;;;4993945;28;20403;-69
2023/05/06 11:19:22;;;;;;;1.10;1.10;;;25.40;78.40;;;;;;4993850;28;20448;-70
2023/05/06 11:21:50;;;;;;;1.30;1.20;;;25.10;79.50;;;;;;4991621;28;20531;-68
2023/05/06 11:24:22;;;;;;;1.80;1.70;;;24.80;81.70;;;;;;4993270;28;20733;-68
2023/05/06 11:26:49;;;;;;;1.30;1.20;;;24.60;81.60;;;;;;4993623;28;20479;-69
2023/05/06 11:29:16;;;;;;;1.60;1.60;;;24.60;81.80;;;;;;4993926;28;20375;-68
2023/05/06 11:31:42;;;;;;;1.13;1.13;;;24.60;81.80;;;;;;4996566;28;20378;-68
2023/05/06 11:34:10;;;;;;;1.00;1.00;;;24.40;82.70;;;;;;4997140;28;20465;-68
2023/05/06 11:36:44;;;;;;;0.97;0.97;;;24.10;82.50;;;;;;4995750;28;20423;-68
2023/05/06 11:39:09;;;;;;;0.87;0.87;;;23.60;86.70;;;;;;4997553;28;20409;-68
2023/05/06 11:41:39;;;;;;;1.43;1.33;;;23.30;86.90;;;;;;4997526;28;20377;-68
2023/05/06 11:44:05;;;;;;;1.07;0.97;;;23.20;86.60;;;;;;4996836;28;20191;-68
2023/05/06 11:46:32;;;;;;;1.40;1.30;;;23.10;87.30;;;;;;4997464;28;20461;-68
2023/05/06 11:48:58;;;;;;;1.50;1.40;;;22.90;85.30;;;;;;4996253;28;20194;-68
2023/05/06 11:51:24;;;;;;;1.47;1.27;;;22.70;88.80;;;;;;4980029;28;20445;-68
2023/05/06 11:53:51;;;;;;;0.87;0.87;;;22.80;90.20;;;;;;4976042;28;20434;-67
2023/05/06 11:56:16;;;;;;;1.47;1.47;;;22.90;90.60;;;;;;4976535;28;20913;-66
2023/05/06 11:58:42;;;;;;;1.27;1.27;;;22.80;87.70;;;;;;4976572;28;20497;-67
2023/05/06 12:01:09;;;;;;;0.90;0.90;;;22.50;87.20;;;;;;4977469;28;20219;-68
2023/05/06 12:03:34;;;;;;;1.60;1.30;;;22.30;89.80;;;;;;4977055;28;20441;-69
2023/05/06 12:06:00;;;;;;;1.73;1.63;;;22.30;90.70;;;;;;4993658;28;21034;-69
2023/05/06 12:08:30;;;;;;;1.20;1.20;;;22.30;89.80;;;;;;4997131;28;20254;-68
2023/05/06 12:11:05;;;;;;;0.90;0.90;;;22.20;87.30;;;;;;4996997;28;20171;-69
2023/05/06 12:13:31;;;;;;;1.00;1.00;;;22.20;86.90;;;;;;4996651;28;20920;-69
2023/05/06 12:15:58;;;;;;;0.93;0.93;;;22.00;89.00;;;;;;4996762;28;20517;-69
2023/05/06 12:18:24;;;;;;;1.10;1.00;;;21.80;88.10;;;;;;4995431;28;20461;-68
2023/05/06 12:20:53;;;;;;;0.87;0.87;;;21.70;91.00;;;;;;4979302;28;20527;-69
2023/05/06 12:23:20;;;;;;;0.93;0.93;;;21.80;90.60;;;;;;4976785;28;20414;-69
2023/05/06 12:26:02;;;;;;;0.97;0.97;;;22.00;90.20;;;;;;4977202;28;20481;-68
2023/05/06 12:28:29;;;;;;;1.00;1.00;;;22.20;88.20;;;;;;4977590;28;20393;-69
2023/05/06 12:30:55;;;;;;;1.10;1.10;;;22.20;88.30;;;;;;4977118;28;20406;-70
2023/05/06 12:33:21;;;;;;;1.13;1.13;;;22.30;86.80;;;;;;4976536;28;20448;-68
2023/05/06 12:35:50;;;;;;;0.80;0.80;;;22.30;86.20;;;;;;4975648;28;20194;-69
2023/05/06 12:38:16;;;;;;;0.63;0.63;;;22.40;86.40;;;;;;4977076;28;20408;-69
2023/05/06 12:40:51;;;;;;;1.03;1.03;;;22.60;85.80;;;;;;4976962;28;20446;-68
2023/05/06 12:43:17;;;;;;;0.70;0.70;;;22.80;89.00;;;;;;4976168;28;20390;-68
2023/05/06 12:45:44;;;;;;;0.80;0.80;;;22.80;85.90;;;;;;4976728;28;20482;-70
2023/05/06 12:48:15;;;;;;;0.70;0.70;;;22.80;85.40;;;;;;4976996;28;20161;-68
2023/05/06 12:50:45;;;;;;;0.80;0.80;;;22.70;85.90;;;;;;4975480;28;20571;-69
2023/05/06 12:53:14;;;;;;;1.90;1.13;;;22.80;87.10;;;;;;4975219;28;20411;-69
2023/05/06 12:55:41;;;;;;;0.93;0.93;;;22.80;85.40;;;;;;4976651;28;20419;-68
2023/05/06 12:58:19;;;;;;;1.20;1.10;;;22.60;84.70;;;;;;4984696;28;20407;-67
2023/05/06 13:00:45;;;;;;;0.63;0.63;;;22.50;85.30;;;;;;4996130;28;20399;-67
2023/05/06 13:03:12;;;;;;;0.60;0.60;;;22.40;84.00;;;;;;4995812;28;20373;-68
2023/05/06 13:05:38;;;;;;;0.87;0.80;;;22.50;84.60;;;;;;4995732;28;20446;-68
2023/05/06 13:08:04;;;;;;;0.70;0.70;;;22.60;83.70;;;;;;4995789;28;20410;-69
2023/05/06 13:10:29;;;;;;;0.80;0.80;;;22.70;83.50;;;;;;4994582;28;20187;-68
2023/05/06 13:12:56;;;;;;;1.10;1.10;;;22.80;85.10;;;;;;4995652;28;20575;-68
2023/05/06 13:15:22;;;;;;;0.80;0.80;;;22.90;85.40;;;;;;4978613;28;20459;-69
2023/05/06 13:17:48;;;;;;;0.60;0.60;;;22.90;84.30;;;;;;4976395;28;20169;-69
2023/05/06 13:20:14;;;;;;;0.67;0.67;;;23.00;83.00;;;;;;4976108;28;20955;-68
2023/05/06 13:22:40;;;;;;;1.10;1.10;;;23.10;83.00;;;;;;4976139;28;20510;-69
2023/05/06 13:25:06;;;;;;;0.93;0.90;;;23.10;83.20;;;;;;4975885;28;20786;-68
2023/05/06 13:27:32;;;;;;;0.70;0.70;;;23.10;84.80;;;;;;4976379;28;20435;-69
2023/05/06 13:29:57;;;;;;;0.57;0.57;;;23.20;85.20;;;;;;4977768;28;20434;-68
2023/05/06 13:32:23;;;;;;;1.00;1.00;;;23.30;83.40;;;;;;4994441;28;20206;-67
2023/05/06 13:34:48;;;;;;;0.70;0.70;;;23.40;82.30;;;;;;4995504;28;20231;-68
2023/05/06 13:37:14;;;;;;;1.00;1.00;;;23.50;84.00;;;;;;4997436;28;20653;-67
2023/05/06 13:39:39;;;;;;;0.83;0.83;;;23.50;80.50;;;;;;4996930;28;20325;-68
2023/05/06 13:42:05;;;;;;;0.93;0.60;;;23.60;80.20;;;;;;4997039;28;20164;-69
2023/05/06 13:44:31;;;;;;;0.77;0.77;;;23.50;79.00;;;;;;4985638;28;20294;-69
2023/05/06 13:46:57;;;;;;;0.60;0.60;;;23.40;79.80;;;;;;4979871;28;20178;-69
2023/05/06 13:49:23;;;;;;;0.70;0.70;;;23.20;78.50;;;;;;4979102;28;20483;-69
2023/05/06 13:51:48;;;;;;;0.70;0.70;;;23.00;79.20;;;;;;4976816;28;20450;-68
2023/05/06 13:54:14;;;;;;;0.60;0.60;;;22.80;79.00;;;;;;4988123;28;20208;-70
2023/05/06 13:56:40;;;;;;;0.50;0.50;;;22.80;80.40;;;;;;4995602;28;20168;-67
2023/05/06 13:59:06;;;;;;;0.73;0.73;;;22.70;79.50;;;;;;4994546;28;20175;-69
2023/05/06 14:01:32;;;;;;;0.70;0.70;;;22.60;79.90;;;;;;4995945;28;20166;-69
2023/05/06 14:03:58;;;;;;;0.60;0.60;;;22.40;79.90;;;;;;4993928;28;20389;-69
2023/05/06 14:06:23;;;;;;;0.63;0.50;;;22.30;81.10;;;;;;4995683;28;20281;-67
2023/05/06 14:08:49;;;;;;;0.53;0.53;;;22.30;81.20;;;;;;4982491;28;20210;-67
2023/05/06 14:11:14;;;;;;;0.70;0.70;;;22.30;80.20;;;;;;4975442;28;20593;-69
2023/05/06 14:13:40;;;;;;;0.70;0.70;;;22.30;80.00;;;;;;4975605;28;20694;-69
2023/05/06 14:16:06;;;;;;;0.60;0.60;;;22.30;79.10;;;;;;4975644;28;20203;-67
2023/05/06 14:18:32;;;;;;;0.77;0.77;;;22.30;79.60;;;;;;4974171;28;20165;-68
2023/05/06 14:20:58;;;;;;;0.60;0.60;;;22.30;80.00;;;;;;4975193;28;20235;-69
2023/05/06 14:23:24;;;;;;;0.57;0.57;;;22.30;79.90;;;;;;4985666;28;21263;-69
2023/05/06 14:25:50;;;;;;;0.50;0.50;;;22.20;80.40;;;;;;4994503;28;20198;-68
2023/05/06 14:28:17;;;;;;;0.77;0.77;;;22.30;80.10;;;;;;4993296;28;20379;-69
2023/05/06 14:30:43;;;;;;;0.70;0.70;;;22.30;81.00;;;;;;4994711;28;20601;-69
2023/05/06 14:33:08;;;;;;;0.70;0.70;;;22.30;78.90;;;;;;4994118;28;20409;-69
2023/05/06 14:35:34;;;;;;;0.60;0.60;;;22.30;79.00;;;;;;4994241;28;20548;-69
2023/05/06 14:38:00;;;;;;;0.57;0.57;;;22.20;79.60;;;;;;4994015;28;20643;-69
2023/05/06 14:40:25;;;;;;;0.60;0.60;;;22.20;79.80;;;;;;4993175;28;20254;-68
2023/05/06 14:42:52;;;;;;;0.80;0.60;;;22.00;79.00;;;;;;4994213;28;20172;-68
2023/05/06 14:45:19;;;;;;;0.70;0.70;;;22.00;79.60;;;;;;4991921;28;20220;-67
2023/05/06 14:47:45;;;;;;;0.60;0.50;;;22.00;79.80;;;;;;4974475;28;20481;-67
2023/05/06 14:50:11;;;;;;;1.67;1.57;;;21.90;80.00;;;;;;4974377;28;20488;-67
2023/05/06 14:52:40;;;;;;;0.80;0.73;;;22.00;82.30;;;;;;4975005;28;20179;-68
2023/05/06 14:55:08;;;;;;;1.00;1.00;;;22.10;83.60;;;;;;4974081;28;20453;-69
2023/05/06 14:57:34;;;;;;;0.60;0.60;;;22.20;82.30;;;;;;4974886;28;20449;-69
2023/05/06 15:00:03;;;;;;;1.00;1.00;;;22.30;79.40;;;;;;4974548;28;20422;-68
2023/05/06 15:02:29;;;;;;;0.70;0.70;;;22.20;77.50;;;;;;4974617;28;20417;-68
2023/05/06 15:04:54;;;;;;;0.50;0.50;;;22.20;78.50;;;;;;4973695;28;20456;-68
2023/05/06 15:07:20;;;;;;;0.70;0.70;;;22.20;77.90;;;;;;4973120;28;20175;-69
2023/05/06 15:09:46;;;;;;;0.90;0.50;;;22.20;76.20;;;;;;4974327;28;20186;-69
2023/05/06 15:12:11;;;;;;;0.50;0.50;;;22.20;74.90;;;;;;4974294;28;20172;-69
2023/05/06 15:14:38;;;;;;;1.33;1.00;;;22.20;75.40;;;;;;4981101;28;20569;-69
2023/05/06 15:17:04;;;;;;;0.60;0.60;;;22.10;76.10;;;;;;4993809;28;20435;-69
2023/05/06 15:19:33;;;;;;;0.47;0.47;;;22.10;76.20;;;;;;4994225;28;20414;-70
2023/05/06 15:21:59;;;;;;;0.70;0.60;;;22.10;76.00;;;;;;4994270;28;20382;-69
2023/05/06 15:24:25;;;;;;;0.73;0.40;;;22.00;76.80;;;;;;4993333;28;20544;-69
2023/05/06 15:26:52;;;;;;;0.80;0.80;;;21.90;77.30;;;;;;4993827;28;20864;-69
2023/05/06 15:29:17;;;;;;;0.80;0.80;;;21.90;77.40;;;;;;4993284;28;20214;-70
2023/05/06 15:31:43;;;;;;;1.07;0.97;;;22.00;77.50;;;;;;4993724;28;20427;-68
2023/05/06 15:34:10;;;;;;;1.90;0.50;;;22.00;76.70;;;;;;4985632;28;20710;-69
2023/05/06 15:36:36;;;;;;;0.80;0.57;;;22.00;76.70;;;;;;4974325;28;20490;-69
2023/05/06 15:39:02;;;;;;;0.40;0.40;;;22.00;76.90;;;;;;4974188;28;20412;-68
2023/05/06 15:41:30;;;;;;;0.50;0.50;;;22.00;77.00;;;;;;4974233;28;20491;-68
2023/05/06 15:43:57;;;;;;;0.77;0.77;;;22.00;76.20;;;;;;4973766;28;20841;-69
2023/05/06 15:46:23;;;;;;;0.50;0.50;;;22.00;77.00;;;;;;4974170;28;20467;-69
2023/05/06 15:48:49;;;;;;;0.70;0.70;;;22.00;76.60;;;;;;4974079;28;20437;-69
2023/05/06 15:51:15;;;;;;;0.80;0.80;;;22.00;75.60;;;;;;4972906;28;20452;-69
2023/05/06 15:53:41;;;;;;;1.77;0.90;;;22.00;76.10;;;;;;4972501;28;20498;-68
2023/05/06 15:56:08;;;;;;;0.70;0.70;;;21.90;76.60;;;;;;4981963;28;20826;-70
2023/05/06 15:58:34;;;;;;;0.50;0.40;;;22.00;77.00;;;;;;4992346;28;20741;-69
2023/05/06 16:01:00;;;;;;;0.40;0.40;;;22.10;76.60;;;;;;4993864;28;20420;-69
2023/05/06 16:03:26;;;;;;;1.50;1.40;;;22.20;76.60;;;;;;4993248;28;20414;-68
2023/05/06 16:05:57;;;;;;;0.40;0.40;;;22.20;76.90;;;;;;4992901;28;20210;-67
2023/05/06 16:08:23;;;;;;;0.73;0.73;;;22.10;75.80;;;;;;4993596;28;20182;-69
2023/05/06 16:10:50;;;;;;;0.67;0.67;;;22.10;76.60;;;;;;4993573;28;20377;-68
2023/05/06 16:13:17;;;;;;;0.93;0.93;;;22.10;75.40;;;;;;4992816;28;20170;-69
2023/05/06 16:15:43;;;;;;;0.77;0.47;;;22.00;75.80;;;;;;4993051;28;20457;-67
2023/05/06 16:18:09;;;;;;;0.60;0.60;;;22.00;75.80;;;;;;4995006;28;20890;-69
2023/05/06 16:20:35;;;;;;;0.50;0.50;;;21.90;74.70;;;;;;4984465;28;20426;-69
2023/05/06 16:23:01;;;;;;;0.60;0.60;;;21.80;75.90;;;;;;4977484;28;20440;-69
2023/05/06 16:25:27;;;;;;;0.60;0.60;;;21.70;75.40;;;;;;4975657;28;20194;-69
2023/05/06 16:27:54;;;;;;;0.60;0.60;;;21.70;75.80;;;;;;4977390;28;20895;-68
2023/05/06 16:30:19;;;;;;;0.70;0.70;;;21.70;76.50;;;;;;4977226;28;20386;-69
2023/05/06 16:32:45;;;;;;;0.60;0.60;;;21.70;76.20;;;;;;4978428;28;20436;-68
2023/05/06 16:35:11;;;;;;;0.80;0.70;;;21.80;76.10;;;;;;4995597;28;20211;-67
2023/05/06 16:37:37;;;;;;;0.53;0.53;;;21.80;76.70;;;;;;4996701;28;20172;-68
2023/05/06 16:40:03;;;;;;;0.93;0.93;;;21.80;75.60;;;;;;4995195;28;20438;-68
2023/05/06 16:42:29;;;;;;;1.17;0.67;;;21.80;75.70;;;;;;4995189;28;20212;-68
2023/05/06 16:44:54;;;;;;;0.83;0.83;;;21.80;76.40;;;;;;4995947;28;20423;-68
2023/05/06 16:47:22;;;;;;;1.00;0.90;;;21.80;76.50;;;;;;4996016;28;20229;-69
2023/05/06 16:49:48;;;;;;;0.60;0.60;;;21.80;76.80;;;;;;4995281;28;20205;-69